sensor_id;sensor_type;location;lat;lon;timestamp;temperature;humidity
10662;DHT22;5379;51.034;7.006;2022-09-13T00:00:44;25.00;95.90
10662;DHT22;5379;51.034;7.006;2022-09-13T00:03:12;25.00;96.00
10662;DHT22;5379;51.034;7.006;2022-09-13T00:05:39;25.00;96.40
10662;DHT22;5379;51.034;7.006;2022-09-13T00:08:07;25.20;96.70
10662;DHT22;5379;51.034;7.006;2022-09-13T00:10:35;25.10;95.90
10662;DHT22;5379;51.034;7.006;2022-09-13T00:13:03;25.10;96.00
10662;DHT22;5379;51.034;7.006;2022-09-13T00:15:30;25.00;95.90
10662;DHT22;5379;51.034;7.006;2022-09-13T00:17:58;25.00;95.80
10662;DHT22;5379;51.034;7.006;2022-09-13T00:20:27;24.90;96.20
10662;DHT22;5379;51.034;7.006;2022-09-13T00:22:54;24.90;96.70
10662;DHT22;5379;51.034;7.006;2022-09-13T00:25:21;24.80;96.40
10662;DHT22;5379;51.034;7.006;2022-09-13T00:27:49;24.80;96.40
10662;DHT22;5379;51.034;7.006;2022-09-13T00:30:16;24.80;96.60
10662;DHT22;5379;51.034;7.006;2022-09-13T00:32:43;24.80;96.60
10662;DHT22;5379;51.034;7.006;2022-09-13T00:35:10;24.90;96.30
10662;DHT22;5379;51.034;7.006;2022-09-13T00:37:39;24.90;96.40
10662;DHT22;5379;51.034;7.006;2022-09-13T00:40:06;24.90;96.40
10662;DHT22;5379;51.034;7.006;2022-09-13T00:42:34;24.90;96.00
10662;DHT22;5379;51.034;7.006;2022-09-13T00:45:11;24.80;96.10
10662;DHT22;5379;51.034;7.006;2022-09-13T00:47:44;24.90;95.90
10662;DHT22;5379;51.034;7.006;2022-09-13T00:50:16;25.00;96.20
10662;DHT22;5379;51.034;7.006;2022-09-13T00:52:48;24.90;96.20
10662;DHT22;5379;51.034;7.006;2022-09-13T00:55:21;24.90;96.20
10662;DHT22;5379;51.034;7.006;2022-09-13T00:57:50;24.80;96.10
10662;DHT22;5379;51.034;7.006;2022-09-13T01:00:18;24.80;96.40
10662;DHT22;5379;51.034;7.006;2022-09-13T01:02:48;24.80;96.40
10662;DHT22;5379;51.034;7.006;2022-09-13T01:05:18;24.80;96.40
10662;DHT22;5379;51.034;7.006;2022-09-13T01:07:47;24.80;96.40
10662;DHT22;5379;51.034;7.006;2022-09-13T01:10:14;24.80;96.30
10662;DHT22;5379;51.034;7.006;2022-09-13T01:12:47;24.80;96.30
10662;DHT22;5379;51.034;7.006;2022-09-13T01:15:16;24.80;96.20
10662;DHT22;5379;51.034;7.006;2022-09-13T01:17:43;24.70;96.50
10662;DHT22;5379;51.034;7.006;2022-09-13T01:20:12;24.80;96.80
10662;DHT22;5379;51.034;7.006;2022-09-13T01:23:01;24.70;96.50
10662;DHT22;5379;51.034;7.006;2022-09-13T01:26:02;24.70;96.80
10662;DHT22;5379;51.034;7.006;2022-09-13T01:28:52;24.70;96.60
10662;DHT22;5379;51.034;7.006;2022-09-13T01:31:30;24.70;96.80
10662;DHT22;5379;51.034;7.006;2022-09-13T01:34:09;24.70;97.00
10662;DHT22;5379;51.034;7.006;2022-09-13T01:36:48;24.80;97.10
10662;DHT22;5379;51.034;7.006;2022-09-13T01:39:26;24.80;97.10
10662;DHT22;5379;51.034;7.006;2022-09-13T01:42:10;24.80;97.00
10662;DHT22;5379;51.034;7.006;2022-09-13T01:45:02;24.70;96.80
10662;DHT22;5379;51.034;7.006;2022-09-13T01:47:36;24.70;96.60
10662;DHT22;5379;51.034;7.006;2022-09-13T01:50:12;24.60;96.60
10662;DHT22;5379;51.034;7.006;2022-09-13T01:52:49;24.60;97.10
10662;DHT22;5379;51.034;7.006;2022-09-13T01:55:27;24.60;96.60
10662;DHT22;5379;51.034;7.006;2022-09-13T01:58:01;24.60;97.00
10662;DHT22;5379;51.034;7.006;2022-09-13T02:00:35;24.60;96.70
10662;DHT22;5379;51.034;7.006;2022-09-13T02:03:09;24.60;96.90
10662;DHT22;5379;51.034;7.006;2022-09-13T02:05:43;24.60;96.80
10662;DHT22;5379;51.034;7.006;2022-09-13T02:08:14;24.50;96.70
10662;DHT22;5379;51.034;7.006;2022-09-13T02:10:46;24.60;97.20
10662;DHT22;5379;51.034;7.006;2022-09-13T02:13:17;24.60;96.50
10662;DHT22;5379;51.034;7.006;2022-09-13T02:15:47;24.50;96.90
10662;DHT22;5379;51.034;7.006;2022-09-13T02:18:19;24.50;96.80
10662;DHT22;5379;51.034;7.006;2022-09-13T02:20:49;24.50;96.70
10662;DHT22;5379;51.034;7.006;2022-09-13T02:23:20;24.50;96.80
10662;DHT22;5379;51.034;7.006;2022-09-13T02:25:50;24.50;96.40
10662;DHT22;5379;51.034;7.006;2022-09-13T02:28:22;24.40;96.60
10662;DHT22;5379;51.034;7.006;2022-09-13T02:30:52;24.40;97.10
10662;DHT22;5379;51.034;7.006;2022-09-13T02:33:25;24.40;97.10
10662;DHT22;5379;51.034;7.006;2022-09-13T02:35:56;24.40;96.70
10662;DHT22;5379;51.034;7.006;2022-09-13T02:38:30;24.40;96.30
10662;DHT22;5379;51.034;7.006;2022-09-13T02:41:01;24.30;96.60
10662;DHT22;5379;51.034;7.006;2022-09-13T02:43:34;24.40;97.10
10662;DHT22;5379;51.034;7.006;2022-09-13T02:46:19;24.40;96.80
10662;DHT22;5379;51.034;7.006;2022-09-13T02:48:56;24.40;96.90
10662;DHT22;5379;51.034;7.006;2022-09-13T02:51:29;24.50;96.70
10662;DHT22;5379;51.034;7.006;2022-09-13T02:54:08;24.50;96.70
10662;DHT22;5379;51.034;7.006;2022-09-13T02:56:43;24.50;96.40
10662;DHT22;5379;51.034;7.006;2022-09-13T02:59:15;24.60;96.90
10662;DHT22;5379;51.034;7.006;2022-09-13T03:01:47;24.60;96.80
10662;DHT22;5379;51.034;7.006;2022-09-13T03:04:16;24.60;96.30
10662;DHT22;5379;51.034;7.006;2022-09-13T03:06:43;24.60;96.40
10662;DHT22;5379;51.034;7.006;2022-09-13T03:09:11;24.60;96.60
10662;DHT22;5379;51.034;7.006;2022-09-13T03:11:52;24.60;97.50
10662;DHT22;5379;51.034;7.006;2022-09-13T03:14:31;24.80;97.70
10662;DHT22;5379;51.034;7.006;2022-09-13T03:20:07;24.70;97.20
10662;DHT22;5379;51.034;7.006;2022-09-13T03:23:02;24.60;97.60
10662;DHT22;5379;51.034;7.006;2022-09-13T03:25:55;24.60;97.60
10662;DHT22;5379;51.034;7.006;2022-09-13T03:28:35;24.60;97.60
10662;DHT22;5379;51.034;7.006;2022-09-13T03:31:09;24.50;97.50
10662;DHT22;5379;51.034;7.006;2022-09-13T03:33:43;24.50;98.30
10662;DHT22;5379;51.034;7.006;2022-09-13T03:36:17;24.50;98.50
10662;DHT22;5379;51.034;7.006;2022-09-13T03:38:54;24.30;97.90
10662;DHT22;5379;51.034;7.006;2022-09-13T03:41:26;24.60;98.10
10662;DHT22;5379;51.034;7.006;2022-09-13T03:43:58;24.60;97.90
10662;DHT22;5379;51.034;7.006;2022-09-13T03:46:30;24.60;98.00
10662;DHT22;5379;51.034;7.006;2022-09-13T03:49:02;24.60;98.10
10662;DHT22;5379;51.034;7.006;2022-09-13T03:51:32;24.70;98.40
10662;DHT22;5379;51.034;7.006;2022-09-13T03:54:03;24.60;98.00
10662;DHT22;5379;51.034;7.006;2022-09-13T03:56:30;24.40;97.50
10662;DHT22;5379;51.034;7.006;2022-09-13T03:58:57;24.00;97.80
10662;DHT22;5379;51.034;7.006;2022-09-13T04:01:24;23.50;98.20
10662;DHT22;5379;51.034;7.006;2022-09-13T04:03:52;23.30;98.80
10662;DHT22;5379;51.034;7.006;2022-09-13T04:06:19;23.10;99.30
10662;DHT22;5379;51.034;7.006;2022-09-13T04:08:47;23.10;99.80
10662;DHT22;5379;51.034;7.006;2022-09-13T04:11:14;23.00;99.50
10662;DHT22;5379;51.034;7.006;2022-09-13T04:13:41;23.00;99.90
10662;DHT22;5379;51.034;7.006;2022-09-13T04:16:08;23.10;99.90
10662;DHT22;5379;51.034;7.006;2022-09-13T04:18:35;23.20;99.90
10662;DHT22;5379;51.034;7.006;2022-09-13T04:21:02;23.40;99.90
10662;DHT22;5379;51.034;7.006;2022-09-13T04:23:30;23.60;99.80
10662;DHT22;5379;51.034;7.006;2022-09-13T04:26:03;23.70;99.70
10662;DHT22;5379;51.034;7.006;2022-09-13T04:28:30;23.70;99.60
10662;DHT22;5379;51.034;7.006;2022-09-13T04:30:57;23.80;99.70
10662;DHT22;5379;51.034;7.006;2022-09-13T04:33:24;23.80;99.60
10662;DHT22;5379;51.034;7.006;2022-09-13T04:35:56;23.80;99.70
10662;DHT22;5379;51.034;7.006;2022-09-13T04:38:24;23.90;99.80
10662;DHT22;5379;51.034;7.006;2022-09-13T04:40:52;23.90;99.80
10662;DHT22;5379;51.034;7.006;2022-09-13T04:43:21;23.80;99.50
10662;DHT22;5379;51.034;7.006;2022-09-13T04:45:48;23.90;99.80
10662;DHT22;5379;51.034;7.006;2022-09-13T04:48:15;23.90;99.80
10662;DHT22;5379;51.034;7.006;2022-09-13T04:50:42;23.90;99.70
10662;DHT22;5379;51.034;7.006;2022-09-13T04:53:09;23.90;99.70
10662;DHT22;5379;51.034;7.006;2022-09-13T04:55:36;23.90;99.90
10662;DHT22;5379;51.034;7.006;2022-09-13T04:58:03;24.00;99.70
10662;DHT22;5379;51.034;7.006;2022-09-13T05:00:32;24.10;99.90
10662;DHT22;5379;51.034;7.006;2022-09-13T05:02:59;24.10;99.70
10662;DHT22;5379;51.034;7.006;2022-09-13T05:05:26;24.00;99.50
10662;DHT22;5379;51.034;7.006;2022-09-13T05:07:55;23.90;99.70
10662;DHT22;5379;51.034;7.006;2022-09-13T05:10:22;23.90;99.80
10662;DHT22;5379;51.034;7.006;2022-09-13T05:12:49;23.90;99.90
10662;DHT22;5379;51.034;7.006;2022-09-13T05:15:17;23.90;99.80
10662;DHT22;5379;51.034;7.006;2022-09-13T05:17:46;23.90;99.50
10662;DHT22;5379;51.034;7.006;2022-09-13T05:20:13;23.90;99.70
10662;DHT22;5379;51.034;7.006;2022-09-13T05:22:40;23.80;99.30
10662;DHT22;5379;51.034;7.006;2022-09-13T05:25:08;23.80;99.60
10662;DHT22;5379;51.034;7.006;2022-09-13T05:27:35;23.80;99.80
10662;DHT22;5379;51.034;7.006;2022-09-13T05:30:02;23.80;99.60
10662;DHT22;5379;51.034;7.006;2022-09-13T05:32:30;24.00;99.80
10662;DHT22;5379;51.034;7.006;2022-09-13T05:34:58;24.10;99.90
10662;DHT22;5379;51.034;7.006;2022-09-13T05:37:25;24.10;99.40
10662;DHT22;5379;51.034;7.006;2022-09-13T05:39:52;24.10;99.70
10662;DHT22;5379;51.034;7.006;2022-09-13T05:42:19;24.30;99.70
10662;DHT22;5379;51.034;7.006;2022-09-13T05:44:46;24.30;99.50
10662;DHT22;5379;51.034;7.006;2022-09-13T05:47:13;24.20;99.60
10662;DHT22;5379;51.034;7.006;2022-09-13T05:49:40;24.20;99.50
10662;DHT22;5379;51.034;7.006;2022-09-13T05:52:08;24.10;99.80
10662;DHT22;5379;51.034;7.006;2022-09-13T05:54:35;24.10;99.30
10662;DHT22;5379;51.034;7.006;2022-09-13T05:57:03;24.00;99.60
10662;DHT22;5379;51.034;7.006;2022-09-13T05:59:30;24.00;99.70
10662;DHT22;5379;51.034;7.006;2022-09-13T06:01:57;24.10;99.90
10662;DHT22;5379;51.034;7.006;2022-09-13T06:04:24;24.00;99.10
10662;DHT22;5379;51.034;7.006;2022-09-13T06:06:51;24.00;99.30
10662;DHT22;5379;51.034;7.006;2022-09-13T06:09:19;24.00;99.50
10662;DHT22;5379;51.034;7.006;2022-09-13T06:11:46;24.20;99.50
10662;DHT22;5379;51.034;7.006;2022-09-13T06:14:13;24.30;99.10
10662;DHT22;5379;51.034;7.006;2022-09-13T06:16:40;24.30;98.70
10662;DHT22;5379;51.034;7.006;2022-09-13T06:19:07;24.20;98.90
10662;DHT22;5379;51.034;7.006;2022-09-13T06:21:34;24.30;99.30
10662;DHT22;5379;51.034;7.006;2022-09-13T06:24:01;24.40;99.00
10662;DHT22;5379;51.034;7.006;2022-09-13T06:26:30;24.30;98.70
10662;DHT22;5379;51.034;7.006;2022-09-13T06:28:58;24.20;98.90
10662;DHT22;5379;51.034;7.006;2022-09-13T06:31:26;24.30;99.70
10662;DHT22;5379;51.034;7.006;2022-09-13T06:33:58;24.30;98.40
10662;DHT22;5379;51.034;7.006;2022-09-13T06:36:25;24.30;98.90
10662;DHT22;5379;51.034;7.006;2022-09-13T06:38:52;24.40;98.80
10662;DHT22;5379;51.034;7.006;2022-09-13T06:41:21;24.40;98.80
10662;DHT22;5379;51.034;7.006;2022-09-13T06:43:53;24.40;98.60
10662;DHT22;5379;51.034;7.006;2022-09-13T06:46:20;24.60;98.60
10662;DHT22;5379;51.034;7.006;2022-09-13T06:48:47;24.60;98.50
10662;DHT22;5379;51.034;7.006;2022-09-13T06:51:17;24.50;98.00
10662;DHT22;5379;51.034;7.006;2022-09-13T06:53:45;24.50;97.70
10662;DHT22;5379;51.034;7.006;2022-09-13T06:56:15;24.50;98.50
10662;DHT22;5379;51.034;7.006;2022-09-13T06:58:45;24.70;98.20
10662;DHT22;5379;51.034;7.006;2022-09-13T07:01:16;24.80;98.30
10662;DHT22;5379;51.034;7.006;2022-09-13T07:03:45;24.70;97.80
10662;DHT22;5379;51.034;7.006;2022-09-13T07:06:14;24.80;98.30
10662;DHT22;5379;51.034;7.006;2022-09-13T07:08:42;24.90;98.30
10662;DHT22;5379;51.034;7.006;2022-09-13T07:11:11;25.00;98.20
10662;DHT22;5379;51.034;7.006;2022-09-13T07:13:38;24.90;97.60
10662;DHT22;5379;51.034;7.006;2022-09-13T07:16:06;24.90;97.50
10662;DHT22;5379;51.034;7.006;2022-09-13T07:18:35;24.90;97.50
10662;DHT22;5379;51.034;7.006;2022-09-13T07:21:04;24.80;97.70
10662;DHT22;5379;51.034;7.006;2022-09-13T07:23:33;24.90;97.60
10662;DHT22;5379;51.034;7.006;2022-09-13T07:26:01;24.90;97.40
10662;DHT22;5379;51.034;7.006;2022-09-13T07:28:31;25.00;97.70
10662;DHT22;5379;51.034;7.006;2022-09-13T07:31:04;24.90;97.70
10662;DHT22;5379;51.034;7.006;2022-09-13T07:33:32;25.00;97.50
10662;DHT22;5379;51.034;7.006;2022-09-13T07:36:00;24.90;97.10
10662;DHT22;5379;51.034;7.006;2022-09-13T07:38:31;24.90;97.50
10662;DHT22;5379;51.034;7.006;2022-09-13T07:40:59;24.80;97.30
10662;DHT22;5379;51.034;7.006;2022-09-13T07:43:26;24.90;97.30
10662;DHT22;5379;51.034;7.006;2022-09-13T07:45:58;25.00;97.50
10662;DHT22;5379;51.034;7.006;2022-09-13T07:48:26;25.00;97.50
10662;DHT22;5379;51.034;7.006;2022-09-13T07:51:00;25.20;97.70
10662;DHT22;5379;51.034;7.006;2022-09-13T07:53:28;25.20;97.80
10662;DHT22;5379;51.034;7.006;2022-09-13T07:55:59;25.30;97.80
10662;DHT22;5379;51.034;7.006;2022-09-13T07:58:27;25.40;97.50
10662;DHT22;5379;51.034;7.006;2022-09-13T08:00:55;25.40;96.60
10662;DHT22;5379;51.034;7.006;2022-09-13T08:03:23;25.00;96.50
10662;DHT22;5379;51.034;7.006;2022-09-13T08:05:50;25.00;97.20
10662;DHT22;5379;51.034;7.006;2022-09-13T08:08:18;25.00;97.80
10662;DHT22;5379;51.034;7.006;2022-09-13T08:10:45;25.10;97.80
10662;DHT22;5379;51.034;7.006;2022-09-13T08:13:14;25.00;97.50
10662;DHT22;5379;51.034;7.006;2022-09-13T08:15:42;25.00;97.40
10662;DHT22;5379;51.034;7.006;2022-09-13T08:18:09;25.00;97.30
10662;DHT22;5379;51.034;7.006;2022-09-13T08:20:36;25.10;97.60
10662;DHT22;5379;51.034;7.006;2022-09-13T08:23:03;25.20;97.50
10662;DHT22;5379;51.034;7.006;2022-09-13T08:25:32;25.30;97.80
10662;DHT22;5379;51.034;7.006;2022-09-13T08:28:00;25.40;97.90
10662;DHT22;5379;51.034;7.006;2022-09-13T08:30:27;25.50;97.30
10662;DHT22;5379;51.034;7.006;2022-09-13T08:32:58;25.60;97.20
10662;DHT22;5379;51.034;7.006;2022-09-13T08:35:26;25.70;97.00
10662;DHT22;5379;51.034;7.006;2022-09-13T08:37:53;25.70;97.00
10662;DHT22;5379;51.034;7.006;2022-09-13T08:40:21;25.80;96.90
10662;DHT22;5379;51.034;7.006;2022-09-13T08:42:53;25.90;96.70
10662;DHT22;5379;51.034;7.006;2022-09-13T08:45:24;25.80;96.50
10662;DHT22;5379;51.034;7.006;2022-09-13T08:47:55;25.80;97.00
10662;DHT22;5379;51.034;7.006;2022-09-13T08:50:26;25.90;96.60
10662;DHT22;5379;51.034;7.006;2022-09-13T08:53:07;25.90;96.70
10662;DHT22;5379;51.034;7.006;2022-09-13T08:55:48;26.00;96.80
10662;DHT22;5379;51.034;7.006;2022-09-13T08:58:37;26.20;96.90
10662;DHT22;5379;51.034;7.006;2022-09-13T09:01:17;26.10;96.70
10662;DHT22;5379;51.034;7.006;2022-09-13T09:03:49;26.20;96.70
10662;DHT22;5379;51.034;7.006;2022-09-13T09:06:20;26.20;96.50
10662;DHT22;5379;51.034;7.006;2022-09-13T09:08:48;26.20;96.40
10662;DHT22;5379;51.034;7.006;2022-09-13T09:11:25;26.30;96.20
10662;DHT22;5379;51.034;7.006;2022-09-13T09:14:00;26.30;96.50
10662;DHT22;5379;51.034;7.006;2022-09-13T09:16:34;26.30;96.10
10662;DHT22;5379;51.034;7.006;2022-09-13T09:19:11;26.40;95.90
10662;DHT22;5379;51.034;7.006;2022-09-13T09:21:42;26.50;96.10
10662;DHT22;5379;51.034;7.006;2022-09-13T09:24:15;26.40;95.70
10662;DHT22;5379;51.034;7.006;2022-09-13T09:26:43;26.50;96.00
10662;DHT22;5379;51.034;7.006;2022-09-13T09:29:16;26.60;96.10
10662;DHT22;5379;51.034;7.006;2022-09-13T09:31:51;26.60;95.90
10662;DHT22;5379;51.034;7.006;2022-09-13T09:34:25;26.70;96.10
10662;DHT22;5379;51.034;7.006;2022-09-13T09:36:59;26.60;96.10
10662;DHT22;5379;51.034;7.006;2022-09-13T09:39:29;26.70;96.20
10662;DHT22;5379;51.034;7.006;2022-09-13T09:42:04;26.70;96.10
10662;DHT22;5379;51.034;7.006;2022-09-13T09:44:39;26.80;96.20
10662;DHT22;5379;51.034;7.006;2022-09-13T09:47:13;26.80;96.30
10662;DHT22;5379;51.034;7.006;2022-09-13T09:49:44;26.80;96.30
10662;DHT22;5379;51.034;7.006;2022-09-13T09:52:34;26.90;96.50
10662;DHT22;5379;51.034;7.006;2022-09-13T09:55:21;27.00;96.70
10662;DHT22;5379;51.034;7.006;2022-09-13T09:57:52;27.00;96.40
10662;DHT22;5379;51.034;7.006;2022-09-13T10:00:22;26.90;96.20
10662;DHT22;5379;51.034;7.006;2022-09-13T10:02:52;27.00;96.50
10662;DHT22;5379;51.034;7.006;2022-09-13T10:05:21;27.00;96.50
10662;DHT22;5379;51.034;7.006;2022-09-13T10:07:58;27.00;96.50
10662;DHT22;5379;51.034;7.006;2022-09-13T10:10:34;27.10;96.60
10662;DHT22;5379;51.034;7.006;2022-09-13T10:13:04;27.00;95.40
10662;DHT22;5379;51.034;7.006;2022-09-13T10:15:34;27.00;96.10
10662;DHT22;5379;51.034;7.006;2022-09-13T10:18:13;27.10;96.40
10662;DHT22;5379;51.034;7.006;2022-09-13T10:20:42;27.20;96.50
10662;DHT22;5379;51.034;7.006;2022-09-13T10:23:24;27.20;96.40
10662;DHT22;5379;51.034;7.006;2022-09-13T10:26:00;27.20;96.50
10662;DHT22;5379;51.034;7.006;2022-09-13T10:28:31;27.20;96.60
10662;DHT22;5379;51.034;7.006;2022-09-13T10:31:03;27.20;96.40
10662;DHT22;5379;51.034;7.006;2022-09-13T10:33:34;27.10;96.50
10662;DHT22;5379;51.034;7.006;2022-09-13T10:36:05;27.10;96.20
10662;DHT22;5379;51.034;7.006;2022-09-13T10:38:36;27.10;96.50
10662;DHT22;5379;51.034;7.006;2022-09-13T10:41:05;27.20;96.60
10662;DHT22;5379;51.034;7.006;2022-09-13T10:43:33;27.20;96.60
10662;DHT22;5379;51.034;7.006;2022-09-13T10:46:04;27.30;96.50
10662;DHT22;5379;51.034;7.006;2022-09-13T10:48:44;27.30;96.50
10662;DHT22;5379;51.034;7.006;2022-09-13T10:51:20;27.20;96.50
10662;DHT22;5379;51.034;7.006;2022-09-13T10:53:48;27.30;96.60
10662;DHT22;5379;51.034;7.006;2022-09-13T10:56:21;27.30;96.50
10662;DHT22;5379;51.034;7.006;2022-09-13T10:58:48;27.20;96.50
10662;DHT22;5379;51.034;7.006;2022-09-13T11:01:28;27.20;96.60
10662;DHT22;5379;51.034;7.006;2022-09-13T11:07:06;27.30;96.60
10662;DHT22;5379;51.034;7.006;2022-09-13T11:09:42;27.30;96.40
10662;DHT22;5379;51.034;7.006;2022-09-13T11:12:19;27.30;96.50
10662;DHT22;5379;51.034;7.006;2022-09-13T11:14:56;27.30;96.50
10662;DHT22;5379;51.034;7.006;2022-09-13T11:17:49;27.30;96.40
10662;DHT22;5379;51.034;7.006;2022-09-13T11:20:24;27.30;96.50
10662;DHT22;5379;51.034;7.006;2022-09-13T11:23:26;27.40;96.50
10662;DHT22;5379;51.034;7.006;2022-09-13T11:26:08;27.30;96.50
10662;DHT22;5379;51.034;7.006;2022-09-13T11:28:46;27.30;96.50
10662;DHT22;5379;51.034;7.006;2022-09-13T11:31:27;27.40;96.60
10662;DHT22;5379;51.034;7.006;2022-09-13T11:34:12;27.40;96.50
10662;DHT22;5379;51.034;7.006;2022-09-13T11:39:31;27.30;96.50
10662;DHT22;5379;51.034;7.006;2022-09-13T11:42:12;27.40;96.60
10662;DHT22;5379;51.034;7.006;2022-09-13T11:45:05;27.40;96.60
10662;DHT22;5379;51.034;7.006;2022-09-13T11:47:44;27.40;96.50
10662;DHT22;5379;51.034;7.006;2022-09-13T11:50:36;27.40;96.50
10662;DHT22;5379;51.034;7.006;2022-09-13T11:53:31;27.30;96.00
10662;DHT22;5379;51.034;7.006;2022-09-13T11:56:03;27.40;96.40
10662;DHT22;5379;51.034;7.006;2022-09-13T11:58:36;27.40;96.50
10662;DHT22;5379;51.034;7.006;2022-09-13T12:01:07;27.40;96.50
10662;DHT22;5379;51.034;7.006;2022-09-13T12:03:39;27.30;96.40
10662;DHT22;5379;51.034;7.006;2022-09-13T12:06:17;27.30;96.50
10662;DHT22;5379;51.034;7.006;2022-09-13T12:08:47;27.50;96.40
10662;DHT22;5379;51.034;7.006;2022-09-13T12:11:18;27.40;96.20
10662;DHT22;5379;51.034;7.006;2022-09-13T12:13:50;27.20;96.60
10662;DHT22;5379;51.034;7.006;2022-09-13T12:16:21;27.20;96.60
10662;DHT22;5379;51.034;7.006;2022-09-13T12:18:52;27.30;96.60
10662;DHT22;5379;51.034;7.006;2022-09-13T12:21:23;27.30;96.50
10662;DHT22;5379;51.034;7.006;2022-09-13T12:23:56;27.30;96.40
10662;DHT22;5379;51.034;7.006;2022-09-13T12:26:32;27.30;96.30
10662;DHT22;5379;51.034;7.006;2022-09-13T12:29:06;27.30;96.00
10662;DHT22;5379;51.034;7.006;2022-09-13T12:31:37;27.50;96.20
10662;DHT22;5379;51.034;7.006;2022-09-13T12:34:06;27.50;96.30
10662;DHT22;5379;51.034;7.006;2022-09-13T12:37:00;27.50;96.10
10662;DHT22;5379;51.034;7.006;2022-09-13T12:39:44;27.50;96.10
10662;DHT22;5379;51.034;7.006;2022-09-13T12:42:48;27.50;96.20
10662;DHT22;5379;51.034;7.006;2022-09-13T12:45:31;27.40;96.30
10662;DHT22;5379;51.034;7.006;2022-09-13T12:48:22;27.50;96.30
10662;DHT22;5379;51.034;7.006;2022-09-13T12:51:11;27.30;96.40
10662;DHT22;5379;51.034;7.006;2022-09-13T12:54:21;27.20;96.30
10662;DHT22;5379;51.034;7.006;2022-09-13T12:57:06;27.30;96.50
10662;DHT22;5379;51.034;7.006;2022-09-13T13:02:39;27.20;96.60
10662;DHT22;5379;51.034;7.006;2022-09-13T13:05:19;27.30;96.40
10662;DHT22;5379;51.034;7.006;2022-09-13T13:07:51;27.20;96.50
10662;DHT22;5379;51.034;7.006;2022-09-13T13:10:27;27.20;96.50
10662;DHT22;5379;51.034;7.006;2022-09-13T13:13:08;27.40;96.50
10662;DHT22;5379;51.034;7.006;2022-09-13T13:15:56;27.40;96.40
10662;DHT22;5379;51.034;7.006;2022-09-13T13:18:27;27.40;96.20
10662;DHT22;5379;51.034;7.006;2022-09-13T13:21:22;27.30;96.30
10662;DHT22;5379;51.034;7.006;2022-09-13T13:26:52;27.20;96.50
10662;DHT22;5379;51.034;7.006;2022-09-13T13:29:21;27.20;96.50
10662;DHT22;5379;51.034;7.006;2022-09-13T13:32:09;27.30;96.40
10662;DHT22;5379;51.034;7.006;2022-09-13T13:34:43;27.40;96.30
10662;DHT22;5379;51.034;7.006;2022-09-13T13:37:32;27.40;96.30
10662;DHT22;5379;51.034;7.006;2022-09-13T13:43:30;27.40;96.00
10662;DHT22;5379;51.034;7.006;2022-09-13T13:48:44;27.30;96.20
10662;DHT22;5379;51.034;7.006;2022-09-13T13:51:19;27.20;96.40
10662;DHT22;5379;51.034;7.006;2022-09-13T13:53:57;27.20;96.50
10662;DHT22;5379;51.034;7.006;2022-09-13T13:56:43;27.20;96.50
10662;DHT22;5379;51.034;7.006;2022-09-13T13:59:17;27.30;96.40
10662;DHT22;5379;51.034;7.006;2022-09-13T14:01:48;27.30;96.30
10662;DHT22;5379;51.034;7.006;2022-09-13T14:04:49;27.30;96.40
10662;DHT22;5379;51.034;7.006;2022-09-13T14:07:39;27.40;96.40
10662;DHT22;5379;51.034;7.006;2022-09-13T14:10:16;27.40;96.20
10662;DHT22;5379;51.034;7.006;2022-09-13T14:12:55;27.40;96.30
10662;DHT22;5379;51.034;7.006;2022-09-13T14:15:41;27.50;96.30
10662;DHT22;5379;51.034;7.006;2022-09-13T14:18:34;27.50;96.20
10662;DHT22;5379;51.034;7.006;2022-09-13T14:21:19;27.40;96.20
10662;DHT22;5379;51.034;7.006;2022-09-13T14:23:47;27.40;96.30
10662;DHT22;5379;51.034;7.006;2022-09-13T14:26:14;27.40;96.20
10662;DHT22;5379;51.034;7.006;2022-09-13T14:28:42;27.30;96.30
10662;DHT22;5379;51.034;7.006;2022-09-13T14:31:16;27.30;96.30
10662;DHT22;5379;51.034;7.006;2022-09-13T14:33:45;27.40;96.30
10662;DHT22;5379;51.034;7.006;2022-09-13T14:36:18;27.40;96.50
10662;DHT22;5379;51.034;7.006;2022-09-13T14:38:57;27.40;96.20
10662;DHT22;5379;51.034;7.006;2022-09-13T14:41:30;27.30;96.20
10662;DHT22;5379;51.034;7.006;2022-09-13T14:44:13;27.40;96.20
10662;DHT22;5379;51.034;7.006;2022-09-13T14:46:47;27.50;96.10
10662;DHT22;5379;51.034;7.006;2022-09-13T14:49:21;27.50;96.10
10662;DHT22;5379;51.034;7.006;2022-09-13T14:51:53;27.60;96.10
10662;DHT22;5379;51.034;7.006;2022-09-13T14:54:28;27.60;96.10
10662;DHT22;5379;51.034;7.006;2022-09-13T14:56:58;27.60;96.10
10662;DHT22;5379;51.034;7.006;2022-09-13T14:59:28;27.60;96.10
10662;DHT22;5379;51.034;7.006;2022-09-13T15:02:04;27.60;96.10
10662;DHT22;5379;51.034;7.006;2022-09-13T15:04:32;27.40;96.00
10662;DHT22;5379;51.034;7.006;2022-09-13T15:07:08;27.80;95.80
10662;DHT22;5379;51.034;7.006;2022-09-13T15:09:36;27.80;95.90
10662;DHT22;5379;51.034;7.006;2022-09-13T15:12:03;27.70;95.90
10662;DHT22;5379;51.034;7.006;2022-09-13T15:14:32;27.70;96.00
10662;DHT22;5379;51.034;7.006;2022-09-13T15:17:08;27.70;96.00
10662;DHT22;5379;51.034;7.006;2022-09-13T15:19:38;27.70;96.10
10662;DHT22;5379;51.034;7.006;2022-09-13T15:22:15;27.70;96.00
10662;DHT22;5379;51.034;7.006;2022-09-13T15:24:46;27.70;96.00
10662;DHT22;5379;51.034;7.006;2022-09-13T15:27:19;27.60;96.10
10662;DHT22;5379;51.034;7.006;2022-09-13T15:29:57;27.70;96.00
10662;DHT22;5379;51.034;7.006;2022-09-13T15:32:32;27.80;95.90
10662;DHT22;5379;51.034;7.006;2022-09-13T15:35:00;27.70;96.00
10662;DHT22;5379;51.034;7.006;2022-09-13T15:37:30;27.70;96.00
10662;DHT22;5379;51.034;7.006;2022-09-13T15:40:19;27.70;96.00
10662;DHT22;5379;51.034;7.006;2022-09-13T15:42:51;27.70;96.00
10662;DHT22;5379;51.034;7.006;2022-09-13T15:45:19;27.70;96.10
10662;DHT22;5379;51.034;7.006;2022-09-13T15:47:49;27.70;96.10
10662;DHT22;5379;51.034;7.006;2022-09-13T15:50:22;27.60;96.10
10662;DHT22;5379;51.034;7.006;2022-09-13T15:52:51;27.50;96.20
10662;DHT22;5379;51.034;7.006;2022-09-13T15:55:18;27.60;96.20
10662;DHT22;5379;51.034;7.006;2022-09-13T15:57:46;27.60;96.10
10662;DHT22;5379;51.034;7.006;2022-09-13T16:00:17;27.60;96.10
10662;DHT22;5379;51.034;7.006;2022-09-13T16:02:45;27.50;96.10
10662;DHT22;5379;51.034;7.006;2022-09-13T16:05:13;27.50;96.20
10662;DHT22;5379;51.034;7.006;2022-09-13T16:07:41;27.60;96.20
10662;DHT22;5379;51.034;7.006;2022-09-13T16:10:14;27.60;96.20
10662;DHT22;5379;51.034;7.006;2022-09-13T16:12:41;27.70;96.10
10662;DHT22;5379;51.034;7.006;2022-09-13T16:15:09;27.70;96.10
10662;DHT22;5379;51.034;7.006;2022-09-13T16:17:37;27.70;96.10
10662;DHT22;5379;51.034;7.006;2022-09-13T16:20:05;27.70;96.10
10662;DHT22;5379;51.034;7.006;2022-09-13T16:22:34;27.70;96.20
10662;DHT22;5379;51.034;7.006;2022-09-13T16:25:01;27.80;96.00
10662;DHT22;5379;51.034;7.006;2022-09-13T16:27:28;27.70;96.00
10662;DHT22;5379;51.034;7.006;2022-09-13T16:29:55;27.70;96.10
10662;DHT22;5379;51.034;7.006;2022-09-13T16:32:22;27.70;96.10
10662;DHT22;5379;51.034;7.006;2022-09-13T16:34:49;27.70;96.10
10662;DHT22;5379;51.034;7.006;2022-09-13T16:37:17;27.70;96.10
10662;DHT22;5379;51.034;7.006;2022-09-13T16:39:46;27.60;96.10